sensor_id;sensor_type;location;lat;lon;timestamp;temperature;humidity
4530;DHT22;2277;51.626;7.516;2023-01-28T00:01:20;4.40;99.90
4530;DHT22;2277;51.626;7.516;2023-01-28T00:03:49;4.40;99.90
4530;DHT22;2277;51.626;7.516;2023-01-28T00:06:15;4.40;99.90
4530;DHT22;2277;51.626;7.516;2023-01-28T00:08:41;4.40;99.90
4530;DHT22;2277;51.626;7.516;2023-01-28T00:11:10;4.40;99.90
4530;DHT22;2277;51.626;7.516;2023-01-28T00:13:36;4.40;99.90
4530;DHT22;2277;51.626;7.516;2023-01-28T00:16:03;4.40;99.90
4530;DHT22;2277;51.626;7.516;2023-01-28T00:18:30;4.40;99.90
4530;DHT22;2277;51.626;7.516;2023-01-28T00:20:58;4.40;99.90
4530;DHT22;2277;51.626;7.516;2023-01-28T00:23:25;4.50;99.90
4530;DHT22;2277;51.626;7.516;2023-01-28T00:25:51;4.50;99.90
4530;DHT22;2277;51.626;7.516;2023-01-28T00:28:17;4.50;99.90
4530;DHT22;2277;51.626;7.516;2023-01-28T00:30:43;4.50;99.90
4530;DHT22;2277;51.626;7.516;2023-01-28T00:33:08;4.50;99.90
4530;DHT22;2277;51.626;7.516;2023-01-28T00:35:34;4.40;99.90
4530;DHT22;2277;51.626;7.516;2023-01-28T00:37:59;4.50;99.90
4530;DHT22;2277;51.626;7.516;2023-01-28T00:40:25;4.40;99.90
4530;DHT22;2277;51.626;7.516;2023-01-28T00:42:50;4.40;99.90
4530;DHT22;2277;51.626;7.516;2023-01-28T00:45:16;4.50;99.90
4530;DHT22;2277;51.626;7.516;2023-01-28T00:47:42;4.40;99.90
4530;DHT22;2277;51.626;7.516;2023-01-28T00:50:10;4.40;99.90
4530;DHT22;2277;51.626;7.516;2023-01-28T00:52:35;4.40;99.90
4530;DHT22;2277;51.626;7.516;2023-01-28T00:55:01;4.40;99.90
4530;DHT22;2277;51.626;7.516;2023-01-28T00:57:27;4.40;99.90
4530;DHT22;2277;51.626;7.516;2023-01-28T00:59:52;4.40;99.90
4530;DHT22;2277;51.626;7.516;2023-01-28T01:02:18;4.40;99.90
4530;DHT22;2277;51.626;7.516;2023-01-28T01:04:43;4.40;99.90
4530;DHT22;2277;51.626;7.516;2023-01-28T01:07:20;4.40;99.90
4530;DHT22;2277;51.626;7.516;2023-01-28T01:09:46;4.40;99.90
4530;DHT22;2277;51.626;7.516;2023-01-28T01:12:12;4.40;99.90
4530;DHT22;2277;51.626;7.516;2023-01-28T01:14:37;4.40;99.90
4530;DHT22;2277;51.626;7.516;2023-01-28T01:17:03;4.40;99.90
4530;DHT22;2277;51.626;7.516;2023-01-28T01:19:28;4.40;99.90
4530;DHT22;2277;51.626;7.516;2023-01-28T01:21:55;4.40;99.90
4530;DHT22;2277;51.626;7.516;2023-01-28T01:24:21;4.40;99.90
4530;DHT22;2277;51.626;7.516;2023-01-28T01:26:47;4.40;99.90
4530;DHT22;2277;51.626;7.516;2023-01-28T01:29:12;4.40;99.90
4530;DHT22;2277;51.626;7.516;2023-01-28T01:31:38;4.40;99.90
4530;DHT22;2277;51.626;7.516;2023-01-28T01:34:03;4.30;99.90
4530;DHT22;2277;51.626;7.516;2023-01-28T01:36:30;4.30;99.90
4530;DHT22;2277;51.626;7.516;2023-01-28T01:38:55;4.30;99.90
4530;DHT22;2277;51.626;7.516;2023-01-28T01:43:53;4.40;99.90
4530;DHT22;2277;51.626;7.516;2023-01-28T01:46:26;4.40;99.90
4530;DHT22;2277;51.626;7.516;2023-01-28T01:48:55;4.40;99.90
4530;DHT22;2277;51.626;7.516;2023-01-28T01:51:26;4.30;99.90
4530;DHT22;2277;51.626;7.516;2023-01-28T01:53:55;4.40;99.90
4530;DHT22;2277;51.626;7.516;2023-01-28T01:56:28;4.30;99.90
4530;DHT22;2277;51.626;7.516;2023-01-28T01:58:57;4.20;99.90
4530;DHT22;2277;51.626;7.516;2023-01-28T02:01:26;4.30;99.90
4530;DHT22;2277;51.626;7.516;2023-01-28T02:04:07;4.30;99.90
4530;DHT22;2277;51.626;7.516;2023-01-28T02:06:34;4.30;99.90
4530;DHT22;2277;51.626;7.516;2023-01-28T02:09:01;4.30;99.90
4530;DHT22;2277;51.626;7.516;2023-01-28T02:11:29;4.30;99.90
4530;DHT22;2277;51.626;7.516;2023-01-28T02:13:58;4.30;99.90
4530;DHT22;2277;51.626;7.516;2023-01-28T02:16:27;4.20;99.90
4530;DHT22;2277;51.626;7.516;2023-01-28T02:18:53;4.20;99.90
4530;DHT22;2277;51.626;7.516;2023-01-28T02:21:39;4.20;99.90
4530;DHT22;2277;51.626;7.516;2023-01-28T02:37:36;4.20;99.90
4530;DHT22;2277;51.626;7.516;2023-01-28T02:40:16;4.20;99.90
4530;DHT22;2277;51.626;7.516;2023-01-28T02:42:42;4.20;99.90
4530;DHT22;2277;51.626;7.516;2023-01-28T02:45:23;4.20;99.90
4530;DHT22;2277;51.626;7.516;2023-01-28T02:47:50;4.20;99.90
4530;DHT22;2277;51.626;7.516;2023-01-28T02:50:23;4.20;99.90
4530;DHT22;2277;51.626;7.516;2023-01-28T02:56:19;4.20;99.90
4530;DHT22;2277;51.626;7.516;2023-01-28T02:58:58;4.30;99.90
4530;DHT22;2277;51.626;7.516;2023-01-28T03:01:35;4.20;99.90
4530;DHT22;2277;51.626;7.516;2023-01-28T03:06:36;4.20;99.90
4530;DHT22;2277;51.626;7.516;2023-01-28T03:09:06;4.30;99.90
4530;DHT22;2277;51.626;7.516;2023-01-28T03:12:01;4.30;99.90
4530;DHT22;2277;51.626;7.516;2023-01-28T03:14:51;4.30;99.90
4530;DHT22;2277;51.626;7.516;2023-01-28T03:17:48;4.30;99.90
4530;DHT22;2277;51.626;7.516;2023-01-28T03:21:24;4.20;99.90
4530;DHT22;2277;51.626;7.516;2023-01-28T03:23:59;4.20;99.90
4530;DHT22;2277;51.626;7.516;2023-01-28T03:29:35;4.20;99.90
4530;DHT22;2277;51.626;7.516;2023-01-28T03:32:21;4.20;99.90
4530;DHT22;2277;51.626;7.516;2023-01-28T03:35:07;4.20;99.90
4530;DHT22;2277;51.626;7.516;2023-01-28T03:37:51;4.20;99.90
4530;DHT22;2277;51.626;7.516;2023-01-28T03:40:17;4.30;99.90
4530;DHT22;2277;51.626;7.516;2023-01-28T03:42:43;4.20;99.90
4530;DHT22;2277;51.626;7.516;2023-01-28T03:45:09;4.20;99.90
4530;DHT22;2277;51.626;7.516;2023-01-28T03:47:35;4.30;99.90
4530;DHT22;2277;51.626;7.516;2023-01-28T03:50:01;4.20;99.90
4530;DHT22;2277;51.626;7.516;2023-01-28T03:52:30;4.20;99.90
4530;DHT22;2277;51.626;7.516;2023-01-28T03:54:56;4.20;99.90
4530;DHT22;2277;51.626;7.516;2023-01-28T03:57:24;4.20;99.90
4530;DHT22;2277;51.626;7.516;2023-01-28T03:59:51;4.20;99.90
4530;DHT22;2277;51.626;7.516;2023-01-28T04:02:21;4.20;99.90
4530;DHT22;2277;51.626;7.516;2023-01-28T04:04:48;4.20;99.90
4530;DHT22;2277;51.626;7.516;2023-01-28T04:07:14;4.20;99.90
4530;DHT22;2277;51.626;7.516;2023-01-28T04:09:41;4.20;99.90
4530;DHT22;2277;51.626;7.516;2023-01-28T04:12:07;4.20;99.90
4530;DHT22;2277;51.626;7.516;2023-01-28T04:14:33;4.10;99.90
4530;DHT22;2277;51.626;7.516;2023-01-28T04:16:59;3.80;99.90
4530;DHT22;2277;51.626;7.516;2023-01-28T04:19:26;3.80;99.90
4530;DHT22;2277;51.626;7.516;2023-01-28T04:21:52;3.80;99.90
4530;DHT22;2277;51.626;7.516;2023-01-28T04:24:22;3.90;99.90
4530;DHT22;2277;51.626;7.516;2023-01-28T04:26:47;3.90;99.90
4530;DHT22;2277;51.626;7.516;2023-01-28T04:29:13;3.80;99.90
4530;DHT22;2277;51.626;7.516;2023-01-28T04:31:39;3.90;99.90
4530;DHT22;2277;51.626;7.516;2023-01-28T04:34:04;3.90;99.90
4530;DHT22;2277;51.626;7.516;2023-01-28T04:36:30;4.00;99.90
4530;DHT22;2277;51.626;7.516;2023-01-28T04:38:56;4.00;99.90
4530;DHT22;2277;51.626;7.516;2023-01-28T04:41:21;4.00;99.90
4530;DHT22;2277;51.626;7.516;2023-01-28T04:43:47;4.00;99.90
4530;DHT22;2277;51.626;7.516;2023-01-28T04:46:14;4.00;99.90
4530;DHT22;2277;51.626;7.516;2023-01-28T04:48:41;4.00;99.90
4530;DHT22;2277;51.626;7.516;2023-01-28T04:51:07;4.00;99.90
4530;DHT22;2277;51.626;7.516;2023-01-28T04:53:32;4.00;99.90
4530;DHT22;2277;51.626;7.516;2023-01-28T04:55:58;4.10;99.90
4530;DHT22;2277;51.626;7.516;2023-01-28T04:58:24;4.10;99.90
4530;DHT22;2277;51.626;7.516;2023-01-28T05:00:56;4.10;99.90
4530;DHT22;2277;51.626;7.516;2023-01-28T05:03:22;4.10;99.90
4530;DHT22;2277;51.626;7.516;2023-01-28T05:05:48;4.00;99.90
4530;DHT22;2277;51.626;7.516;2023-01-28T05:08:14;4.10;99.90
4530;DHT22;2277;51.626;7.516;2023-01-28T05:10:40;4.10;99.90
4530;DHT22;2277;51.626;7.516;2023-01-28T05:13:05;4.10;99.90
4530;DHT22;2277;51.626;7.516;2023-01-28T05:15:31;4.10;99.90
4530;DHT22;2277;51.626;7.516;2023-01-28T05:17:56;4.00;99.90
4530;DHT22;2277;51.626;7.516;2023-01-28T05:20:22;4.00;99.90
4530;DHT22;2277;51.626;7.516;2023-01-28T05:22:48;3.90;99.90
4530;DHT22;2277;51.626;7.516;2023-01-28T05:25:14;4.00;99.90
4530;DHT22;2277;51.626;7.516;2023-01-28T05:27:39;4.00;99.90
4530;DHT22;2277;51.626;7.516;2023-01-28T05:30:05;4.00;99.90
4530;DHT22;2277;51.626;7.516;2023-01-28T05:32:31;4.10;99.90
4530;DHT22;2277;51.626;7.516;2023-01-28T05:34:57;4.00;99.90
4530;DHT22;2277;51.626;7.516;2023-01-28T05:37:22;4.00;99.90
4530;DHT22;2277;51.626;7.516;2023-01-28T05:39:48;3.90;99.90
4530;DHT22;2277;51.626;7.516;2023-01-28T05:42:13;3.90;99.90
4530;DHT22;2277;51.626;7.516;2023-01-28T05:44:40;4.00;99.90
4530;DHT22;2277;51.626;7.516;2023-01-28T05:47:06;3.90;99.90
4530;DHT22;2277;51.626;7.516;2023-01-28T05:49:31;3.90;99.90
4530;DHT22;2277;51.626;7.516;2023-01-28T05:51:57;3.90;99.90
4530;DHT22;2277;51.626;7.516;2023-01-28T05:54:22;3.90;99.90
4530;DHT22;2277;51.626;7.516;2023-01-28T05:56:48;4.00;99.90
4530;DHT22;2277;51.626;7.516;2023-01-28T05:59:14;4.00;99.90
4530;DHT22;2277;51.626;7.516;2023-01-28T06:01:39;3.90;99.90
4530;DHT22;2277;51.626;7.516;2023-01-28T06:04:05;4.00;99.90
4530;DHT22;2277;51.626;7.516;2023-01-28T06:06:31;3.90;99.90
4530;DHT22;2277;51.626;7.516;2023-01-28T06:08:56;4.00;99.90
4530;DHT22;2277;51.626;7.516;2023-01-28T06:11:22;4.00;99.90
4530;DHT22;2277;51.626;7.516;2023-01-28T06:13:48;3.90;99.90
4530;DHT22;2277;51.626;7.516;2023-01-28T06:16:13;3.80;99.90
4530;DHT22;2277;51.626;7.516;2023-01-28T06:18:39;3.80;99.90
4530;DHT22;2277;51.626;7.516;2023-01-28T06:21:06;3.80;99.90
4530;DHT22;2277;51.626;7.516;2023-01-28T06:23:32;3.80;99.90
4530;DHT22;2277;51.626;7.516;2023-01-28T06:25:58;3.80;99.90
4530;DHT22;2277;51.626;7.516;2023-01-28T06:28:23;3.80;99.90
4530;DHT22;2277;51.626;7.516;2023-01-28T06:30:50;3.80;99.90
4530;DHT22;2277;51.626;7.516;2023-01-28T06:33:17;3.70;99.90
4530;DHT22;2277;51.626;7.516;2023-01-28T06:35:42;3.80;99.90
4530;DHT22;2277;51.626;7.516;2023-01-28T06:38:10;3.70;99.90
4530;DHT22;2277;51.626;7.516;2023-01-28T06:40:36;3.80;99.90
4530;DHT22;2277;51.626;7.516;2023-01-28T06:43:02;3.80;99.90
4530;DHT22;2277;51.626;7.516;2023-01-28T06:45:28;3.80;99.90
4530;DHT22;2277;51.626;7.516;2023-01-28T06:47:53;3.80;99.90
4530;DHT22;2277;51.626;7.516;2023-01-28T06:50:19;3.80;99.90
4530;DHT22;2277;51.626;7.516;2023-01-28T06:52:45;3.80;99.90
4530;DHT22;2277;51.626;7.516;2023-01-28T06:55:10;3.80;99.90
4530;DHT22;2277;51.626;7.516;2023-01-28T06:57:37;3.80;99.90
4530;DHT22;2277;51.626;7.516;2023-01-28T07:00:05;3.70;99.90
4530;DHT22;2277;51.626;7.516;2023-01-28T07:02:31;3.50;99.90
4530;DHT22;2277;51.626;7.516;2023-01-28T07:04:56;3.50;99.90
4530;DHT22;2277;51.626;7.516;2023-01-28T07:07:22;3.50;99.90
4530;DHT22;2277;51.626;7.516;2023-01-28T07:09:48;3.50;99.90
4530;DHT22;2277;51.626;7.516;2023-01-28T07:12:13;3.60;99.90
4530;DHT22;2277;51.626;7.516;2023-01-28T07:14:39;3.50;99.90
4530;DHT22;2277;51.626;7.516;2023-01-28T07:17:05;3.50;99.90
4530;DHT22;2277;51.626;7.516;2023-01-28T07:19:31;3.50;99.90
4530;DHT22;2277;51.626;7.516;2023-01-28T07:21:56;3.50;99.90
4530;DHT22;2277;51.626;7.516;2023-01-28T07:24:25;3.50;99.90
4530;DHT22;2277;51.626;7.516;2023-01-28T07:26:51;3.50;99.90
4530;DHT22;2277;51.626;7.516;2023-01-28T07:29:16;3.50;99.90
4530;DHT22;2277;51.626;7.516;2023-01-28T07:31:42;3.50;99.90
4530;DHT22;2277;51.626;7.516;2023-01-28T07:34:08;3.50;99.90
4530;DHT22;2277;51.626;7.516;2023-01-28T07:36:34;3.40;99.90
4530;DHT22;2277;51.626;7.516;2023-01-28T07:38:59;3.40;99.90
4530;DHT22;2277;51.626;7.516;2023-01-28T07:41:25;3.40;99.90
4530;DHT22;2277;51.626;7.516;2023-01-28T07:43:52;3.40;99.90
4530;DHT22;2277;51.626;7.516;2023-01-28T07:46:17;3.40;99.90
4530;DHT22;2277;51.626;7.516;2023-01-28T07:48:43;3.40;99.90
4530;DHT22;2277;51.626;7.516;2023-01-28T07:51:10;3.40;99.90
4530;DHT22;2277;51.626;7.516;2023-01-28T07:53:36;3.40;99.90
4530;DHT22;2277;51.626;7.516;2023-01-28T07:56:01;3.40;99.90
4530;DHT22;2277;51.626;7.516;2023-01-28T07:58:29;3.40;99.90
4530;DHT22;2277;51.626;7.516;2023-01-28T08:00:58;3.40;99.90
4530;DHT22;2277;51.626;7.516;2023-01-28T08:03:24;3.40;99.90
4530;DHT22;2277;51.626;7.516;2023-01-28T08:05:51;3.40;99.90
4530;DHT22;2277;51.626;7.516;2023-01-28T08:08:18;3.40;99.90
4530;DHT22;2277;51.626;7.516;2023-01-28T08:10:44;3.40;99.90
4530;DHT22;2277;51.626;7.516;2023-01-28T08:13:10;3.40;99.90
4530;DHT22;2277;51.626;7.516;2023-01-28T08:15:36;3.40;99.90
4530;DHT22;2277;51.626;7.516;2023-01-28T08:18:04;3.30;99.90
4530;DHT22;2277;51.626;7.516;2023-01-28T08:20:30;3.40;99.90
4530;DHT22;2277;51.626;7.516;2023-01-28T08:23:08;3.40;99.90
4530;DHT22;2277;51.626;7.516;2023-01-28T08:25:35;3.40;99.90
4530;DHT22;2277;51.626;7.516;2023-01-28T08:28:02;3.40;99.90
4530;DHT22;2277;51.626;7.516;2023-01-28T08:30:28;3.40;99.90
4530;DHT22;2277;51.626;7.516;2023-01-28T08:32:57;3.40;99.90
4530;DHT22;2277;51.626;7.516;2023-01-28T08:35:24;3.40;99.90
4530;DHT22;2277;51.626;7.516;2023-01-28T08:37:50;3.30;99.90
4530;DHT22;2277;51.626;7.516;2023-01-28T08:40:16;3.30;99.90
4530;DHT22;2277;51.626;7.516;2023-01-28T08:42:48;3.40;99.90
4530;DHT22;2277;51.626;7.516;2023-01-28T08:45:14;3.30;99.90
4530;DHT22;2277;51.626;7.516;2023-01-28T08:48:03;3.40;99.90
4530;DHT22;2277;51.626;7.516;2023-01-28T08:50:32;3.40;99.90
4530;DHT22;2277;51.626;7.516;2023-01-28T08:53:19;3.40;99.90
4530;DHT22;2277;51.626;7.516;2023-01-28T08:55:45;3.40;99.90
4530;DHT22;2277;51.626;7.516;2023-01-28T08:58:13;3.40;99.90
4530;DHT22;2277;51.626;7.516;2023-01-28T09:00:39;3.40;99.90
4530;DHT22;2277;51.626;7.516;2023-01-28T09:03:06;3.40;99.90
4530;DHT22;2277;51.626;7.516;2023-01-28T09:05:32;3.40;99.90
4530;DHT22;2277;51.626;7.516;2023-01-28T09:08:13;3.50;99.90
4530;DHT22;2277;51.626;7.516;2023-01-28T09:10:39;3.40;99.90
4530;DHT22;2277;51.626;7.516;2023-01-28T09:13:12;3.40;99.90
4530;DHT22;2277;51.626;7.516;2023-01-28T09:15:39;3.40;99.90
4530;DHT22;2277;51.626;7.516;2023-01-28T09:18:05;3.40;99.90
4530;DHT22;2277;51.626;7.516;2023-01-28T09:20:30;3.40;99.90
4530;DHT22;2277;51.626;7.516;2023-01-28T09:22:58;3.40;99.90
4530;DHT22;2277;51.626;7.516;2023-01-28T09:25:24;3.40;99.90
4530;DHT22;2277;51.626;7.516;2023-01-28T09:27:49;3.40;99.90
4530;DHT22;2277;51.626;7.516;2023-01-28T09:30:15;3.40;99.90
4530;DHT22;2277;51.626;7.516;2023-01-28T09:32:41;3.50;99.90
4530;DHT22;2277;51.626;7.516;2023-01-28T09:35:07;3.50;99.90
4530;DHT22;2277;51.626;7.516;2023-01-28T09:37:33;3.50;99.90
4530;DHT22;2277;51.626;7.516;2023-01-28T09:39:58;3.60;99.90
4530;DHT22;2277;51.626;7.516;2023-01-28T09:45:15;3.60;99.90
4530;DHT22;2277;51.626;7.516;2023-01-28T09:47:45;3.70;99.90
4530;DHT22;2277;51.626;7.516;2023-01-28T09:50:19;3.70;99.90
4530;DHT22;2277;51.626;7.516;2023-01-28T09:52:48;3.70;99.90
4530;DHT22;2277;51.626;7.516;2023-01-28T09:55:32;3.80;99.90
4530;DHT22;2277;51.626;7.516;2023-01-28T09:57:58;3.90;99.90
4530;DHT22;2277;51.626;7.516;2023-01-28T10:00:52;3.90;99.90
4530;DHT22;2277;51.626;7.516;2023-01-28T10:16:44;4.10;99.90
4530;DHT22;2277;51.626;7.516;2023-01-28T10:19:15;4.10;99.90
4530;DHT22;2277;51.626;7.516;2023-01-28T10:21:48;4.10;99.90
4530;DHT22;2277;51.626;7.516;2023-01-28T10:24:28;4.10;99.90
4530;DHT22;2277;51.626;7.516;2023-01-28T10:26:55;4.20;99.90
4530;DHT22;2277;51.626;7.516;2023-01-28T10:29:27;4.10;99.90
4530;DHT22;2277;51.626;7.516;2023-01-28T10:32:27;4.10;99.90
4530;DHT22;2277;51.626;7.516;2023-01-28T10:34:54;4.10;99.90
4530;DHT22;2277;51.626;7.516;2023-01-28T10:37:21;4.10;99.90
4530;DHT22;2277;51.626;7.516;2023-01-28T10:39:47;4.10;99.90
4530;DHT22;2277;51.626;7.516;2023-01-28T10:42:33;4.10;99.90
4530;DHT22;2277;51.626;7.516;2023-01-28T10:45:22;4.10;99.90
4530;DHT22;2277;51.626;7.516;2023-01-28T10:48:02;4.20;99.90
4530;DHT22;2277;51.626;7.516;2023-01-28T10:50:31;4.20;99.90
4530;DHT22;2277;51.626;7.516;2023-01-28T10:52:59;4.20;99.90
4530;DHT22;2277;51.626;7.516;2023-01-28T10:55:51;4.20;99.90
4530;DHT22;2277;51.626;7.516;2023-01-28T10:58:24;4.20;99.90
4530;DHT22;2277;51.626;7.516;2023-01-28T11:00:55;4.20;99.90
4530;DHT22;2277;51.626;7.516;2023-01-28T11:03:22;4.20;99.90
4530;DHT22;2277;51.626;7.516;2023-01-28T11:05:53;4.20;99.90
4530;DHT22;2277;51.626;7.516;2023-01-28T11:08:20;4.20;99.90
4530;DHT22;2277;51.626;7.516;2023-01-28T11:10:46;4.20;99.90
4530;DHT22;2277;51.626;7.516;2023-01-28T11:13:19;4.20;99.90
4530;DHT22;2277;51.626;7.516;2023-01-28T11:15:50;4.20;99.90
4530;DHT22;2277;51.626;7.516;2023-01-28T11:18:26;4.20;99.90
4530;DHT22;2277;51.626;7.516;2023-01-28T11:20:56;4.10;99.90
4530;DHT22;2277;51.626;7.516;2023-01-28T11:23:26;4.00;99.90
4530;DHT22;2277;51.626;7.516;2023-01-28T11:26:06;4.10;99.90
4530;DHT22;2277;51.626;7.516;2023-01-28T11:28:34;4.10;99.90
4530;DHT22;2277;51.626;7.516;2023-01-28T11:31:04;4.10;99.90
4530;DHT22;2277;51.626;7.516;2023-01-28T11:33:37;4.00;99.90
4530;DHT22;2277;51.626;7.516;2023-01-28T11:36:16;4.00;99.90
4530;DHT22;2277;51.626;7.516;2023-01-28T11:38:52;4.00;99.90
4530;DHT22;2277;51.626;7.516;2023-01-28T11:41:32;4.00;99.90
4530;DHT22;2277;51.626;7.516;2023-01-28T11:44:01;4.00;99.90
4530;DHT22;2277;51.626;7.516;2023-01-28T11:46:44;4.00;99.90
4530;DHT22;2277;51.626;7.516;2023-01-28T11:51:55;4.00;99.90
4530;DHT22;2277;51.626;7.516;2023-01-28T11:54:36;4.00;99.90
4530;DHT22;2277;51.626;7.516;2023-01-28T11:57:24;4.10;99.90
4530;DHT22;2277;51.626;7.516;2023-01-28T11:59:58;4.10;99.90
4530;DHT22;2277;51.626;7.516;2023-01-28T12:05:49;4.10;99.90
4530;DHT22;2277;51.626;7.516;2023-01-28T12:08:47;4.10;99.90
4530;DHT22;2277;51.626;7.516;2023-01-28T12:11:47;4.20;99.90
4530;DHT22;2277;51.626;7.516;2023-01-28T12:22:53;3.80;99.90
4530;DHT22;2277;51.626;7.516;2023-01-28T12:25:30;3.90;99.90
4530;DHT22;2277;51.626;7.516;2023-01-28T12:29:11;3.80;99.90
4530;DHT22;2277;51.626;7.516;2023-01-28T12:37:24;3.40;99.90
4530;DHT22;2277;51.626;7.516;2023-01-28T12:40:15;3.30;99.90
4530;DHT22;2277;51.626;7.516;2023-01-28T12:42:55;3.40;99.90
4530;DHT22;2277;51.626;7.516;2023-01-28T12:45:30;3.40;99.90
4530;DHT22;2277;51.626;7.516;2023-01-28T12:48:06;3.60;99.90
4530;DHT22;2277;51.626;7.516;2023-01-28T12:56:02;4.20;99.90
4530;DHT22;2277;51.626;7.516;2023-01-28T13:01:28;4.40;99.90
4530;DHT22;2277;51.626;7.516;2023-01-28T13:07:08;4.70;99.90
4530;DHT22;2277;51.626;7.516;2023-01-28T13:09:47;5.00;99.90
4530;DHT22;2277;51.626;7.516;2023-01-28T13:12:14;5.20;99.90
4530;DHT22;2277;51.626;7.516;2023-01-28T13:14:41;5.30;99.90
4530;DHT22;2277;51.626;7.516;2023-01-28T13:17:33;5.40;99.90
4530;DHT22;2277;51.626;7.516;2023-01-28T13:19:59;5.50;99.90
4530;DHT22;2277;51.626;7.516;2023-01-28T13:22:29;5.60;99.90
4530;DHT22;2277;51.626;7.516;2023-01-28T13:24:55;5.70;99.90
4530;DHT22;2277;51.626;7.516;2023-01-28T13:27:24;5.80;99.90
4530;DHT22;2277;51.626;7.516;2023-01-28T13:30:02;5.80;99.90
4530;DHT22;2277;51.626;7.516;2023-01-28T13:32:31;5.90;99.90
4530;DHT22;2277;51.626;7.516;2023-01-28T13:35:04;6.00;99.90
4530;DHT22;2277;51.626;7.516;2023-01-28T13:37:37;6.00;99.90
4530;DHT22;2277;51.626;7.516;2023-01-28T13:42:37;6.00;99.90
4530;DHT22;2277;51.626;7.516;2023-01-28T13:47:48;6.00;99.90
4530;DHT22;2277;51.626;7.516;2023-01-28T13:50:18;5.90;99.90
4530;DHT22;2277;51.626;7.516;2023-01-28T13:52:58;5.90;99.90
4530;DHT22;2277;51.626;7.516;2023-01-28T13:55:30;5.80;99.90
4530;DHT22;2277;51.626;7.516;2023-01-28T14:06:30;5.80;99.90
4530;DHT22;2277;51.626;7.516;2023-01-28T14:17:31;5.60;99.90
4530;DHT22;2277;51.626;7.516;2023-01-28T14:19:59;5.70;99.90
4530;DHT22;2277;51.626;7.516;2023-01-28T14:22:25;5.80;99.90
4530;DHT22;2277;51.626;7.516;2023-01-28T14:24:51;5.80;99.90
4530;DHT22;2277;51.626;7.516;2023-01-28T14:27:28;5.80;99.90
4530;DHT22;2277;51.626;7.516;2023-01-28T14:30:22;5.90;99.90
4530;DHT22;2277;51.626;7.516;2023-01-28T14:32:51;6.00;99.90
4530;DHT22;2277;51.626;7.516;2023-01-28T14:35:29;6.10;99.90
4530;DHT22;2277;51.626;7.516;2023-01-28T14:37:56;6.30;99.90
4530;DHT22;2277;51.626;7.516;2023-01-28T14:40:23;6.40;99.90
4530;DHT22;2277;51.626;7.516;2023-01-28T14:42:52;6.50;99.90
4530;DHT22;2277;51.626;7.516;2023-01-28T14:48:25;6.60;99.90
4530;DHT22;2277;51.626;7.516;2023-01-28T14:59:23;6.70;99.90
4530;DHT22;2277;51.626;7.516;2023-01-28T15:01:56;6.70;99.90
4530;DHT22;2277;51.626;7.516;2023-01-28T15:06:50;6.60;99.90
4530;DHT22;2277;51.626;7.516;2023-01-28T15:09:16;6.50;99.90
4530;DHT22;2277;51.626;7.516;2023-01-28T15:11:44;6.40;99.90
4530;DHT22;2277;51.626;7.516;2023-01-28T15:14:29;6.30;99.90
4530;DHT22;2277;51.626;7.516;2023-01-28T15:16:56;6.10;99.90
4530;DHT22;2277;51.626;7.516;2023-01-28T15:19:28;6.00;99.90
4530;DHT22;2277;51.626;7.516;2023-01-28T15:22:00;5.80;99.90
4530;DHT22;2277;51.626;7.516;2023-01-28T15:24:26;5.70;99.90
4530;DHT22;2277;51.626;7.516;2023-01-28T15:26:52;5.70;99.90
4530;DHT22;2277;51.626;7.516;2023-01-28T15:29:30;5.60;99.90
4530;DHT22;2277;51.626;7.516;2023-01-28T15:31:56;5.60;99.90
4530;DHT22;2277;51.626;7.516;2023-01-28T15:34:22;5.40;99.90
4530;DHT22;2277;51.626;7.516;2023-01-28T15:36:55;5.40;99.90
4530;DHT22;2277;51.626;7.516;2023-01-28T15:39:23;5.30;99.90
4530;DHT22;2277;51.626;7.516;2023-01-28T15:41:52;5.20;99.90
4530;DHT22;2277;51.626;7.516;2023-01-28T15:44:26;5.10;99.90
4530;DHT22;2277;51.626;7.516;2023-01-28T15:46:58;5.10;99.90
4530;DHT22;2277;51.626;7.516;2023-01-28T15:49:29;5.00;99.90
4530;DHT22;2277;51.626;7.516;2023-01-28T15:51:55;5.00;99.90
4530;DHT22;2277;51.626;7.516;2023-01-28T15:54:21;5.00;99.90
4530;DHT22;2277;51.626;7.516;2023-01-28T15:56:48;5.00;99.90
4530;DHT22;2277;51.626;7.516;2023-01-28T15:59:27;4.90;99.90
4530;DHT22;2277;51.626;7.516;2023-01-28T16:02:20;4.80;99.90
4530;DHT22;2277;51.626;7.516;2023-01-28T16:05:00;4.80;99.90
4530;DHT22;2277;51.626;7.516;2023-01-28T16:07:28;4.70;99.90
4530;DHT22;2277;51.626;7.516;2023-01-28T16:09:55;4.70;99.90
4530;DHT22;2277;51.626;7.516;2023-01-28T16:12:22;4.60;99.90
4530;DHT22;2277;51.626;7.516;2023-01-28T16:14:54;4.50;99.90
4530;DHT22;2277;51.626;7.516;2023-01-28T16:17:25;4.50;99.90
4530;DHT22;2277;51.626;7.516;2023-01-28T16:20:23;4.50;99.90
4530;DHT22;2277;51.626;7.516;2023-01-28T16:22:50;4.40;99.90
4530;DHT22;2277;51.626;7.516;2023-01-28T16:25:32;4.40;99.90
4530;DHT22;2277;51.626;7.516;2023-01-28T16:27:59;4.30;99.90
4530;DHT22;2277;51.626;7.516;2023-01-28T16:30:26;4.20;99.90
4530;DHT22;2277;51.626;7.516;2023-01-28T16:32:51;4.20;99.90
4530;DHT22;2277;51.626;7.516;2023-01-28T16:35:29;4.10;99.90
4530;DHT22;2277;51.626;7.516;2023-01-28T16:37:54;4.10;99.90
4530;DHT22;2277;51.626;7.516;2023-01-28T16:40:22;4.00;99.90
4530;DHT22;2277;51.626;7.516;2023-01-28T16:42:48;3.90;99.90
4530;DHT22;2277;51.626;7.516;2023-01-28T16:45:20;3.90;99.90
4530;DHT22;2277;51.626;7.516;2023-01-28T16:47:46;3.80;99.90
4530;DHT22;2277;51.626;7.516;2023-01-28T16:50:12;3.70;99.90
4530;DHT22;2277;51.626;7.516;2023-01-28T16:52:39;3.70;99.90
4530;DHT22;2277;51.626;7.516;2023-01-28T16:55:16;3.70;99.90
4530;DHT22;2277;51.626;7.516;2023-01-28T16:57:43;3.70;99.90
4530;DHT22;2277;51.626;7.516;2023-01-28T17:00:17;3.60;99.90
4530;DHT22;2277;51.626;7.516;2023-01-28T17:02:44;3.60;99.90
4530;DHT22;2277;51.626;7.516;2023-01-28T17:05:10;3.50;99.90
4530;DHT22;2277;51.626;7.516;2023-01-28T17:07:36;3.50;99.90
4530;DHT22;2277;51.626;7.516;2023-01-28T17:10:02;3.40;99.90
4530;DHT22;2277;51.626;7.516;2023-01-28T17:12:28;3.40;99.90
4530;DHT22;2277;51.626;7.516;2023-01-28T17:14:54;3.40;99.90
4530;DHT22;2277;51.626;7.516;2023-01-28T17:17:19;3.30;99.90
4530;DHT22;2277;51.626;7.516;2023-01-28T17:19:45;3.30;99.90
4530;DHT22;2277;51.626;7.516;2023-01-28T17:22:10;3.20;99.90
4530;DHT22;2277;51.626;7.516;2023-01-28T17:24:36;3.10;99.90
4530;DHT22;2277;51.626;7.516;2023-01-28T17:27:02;3.00;99.90
4530;DHT22;2277;51.626;7.516;2023-01-28T17:29:27;3.00;99.90
4530;DHT22;2277;51.626;7.516;2023-01-28T17:31:53;3.00;99.90
4530;DHT22;2277;51.626;7.516;2023-01-28T17:34:18;3.00;99.90
4530;DHT22;2277;51.626;7.516;2023-01-28T17:36:44;3.00;99.90
4530;DHT22;2277;51.626;7.516;2023-01-28T17:39:09;3.10;99.90
4530;DHT22;2277;51.626;7.516;2023-01-28T17:41:35;3.00;99.90
4530;DHT22;2277;51.626;7.516;2023-01-28T17:44:01;3.00;99.90
4530;DHT22;2277;51.626;7.516;2023-01-28T17:46:28;3.00;99.90
4530;DHT22;2277;51.626;7.516;2023-01-28T17:48:54;3.00;99.90
4530;DHT22;2277;51.626;7.516;2023-01-28T17:51:20;3.00;99.90
4530;DHT22;2277;51.626;7.516;2023-01-28T17:53:50;2.90;99.90
4530;DHT22;2277;51.626;7.516;2023-01-28T17:56:21;2.90;99.90
4530;DHT22;2277;51.626;7.516;2023-01-28T17:58:56;2.80;99.90
4530;DHT22;2277;51.626;7.516;2023-01-28T18:01:23;2.80;99.90
4530;DHT22;2277;51.626;7.516;2023-01-28T18:03:49;2.70;99.90
4530;DHT22;2277;51.626;7.516;2023-01-28T18:06:15;2.70;99.90
4530;DHT22;2277;51.626;7.516;2023-01-28T18:08:41;2.70;99.90
4530;DHT22;2277;51.626;7.516;2023-01-28T18:11:08;2.60;99.90
4530;DHT22;2277;51.626;7.516;2023-01-28T18:13:35;2.60;99.90
4530;DHT22;2277;51.626;7.516;2023-01-28T18:16:02;2.60;99.90
4530;DHT22;2277;51.626;7.516;2023-01-28T18:18:28;2.60;99.90
4530;DHT22;2277;51.626;7.516;2023-01-28T18:21:02;2.50;99.90
4530;DHT22;2277;51.626;7.516;2023-01-28T18:23:29;2.50;99.90